Seabrook, New Jersey
Current Conditions -  °F | °C
As of 8:54 PM on Sunday 25 Jan 2015 (Local Time) from KMIV Reporting Station
Overcast Overcast  
Wind Chill: 39°   Ceiling: 4500
Heat Index: 42°   Visibility: 10mi
Dew Point: 32°   Wind: 5mph
Humidity: 67%   Direction: 20°NNE
Pressure: 29.91"   Gusts: NA
Location:  39.4433°N, 75.2554°W
Report Text: KMIV 260154Z AUTO 02004KT 10SM BKN045 OVC060 06/00 A2991 RMK AO2 SLP127 T00560000
Loading
Personal Weather Stations






























Interactive Weather Map New forecast layout! Learn more

10-Day Weather Forecast

Advertisements
Track Severe Weather on mobile